Voorhees, New Jersey
Current Conditions -  °F | °C
As of 8:54 AM on Saturday 22 Nov 2014 (Local Time) from KVAY Reporting Station
Clear Clear  
Wind Chill: 23°   Ceiling: Unl
Heat Index: 29°   Visibility: 10mi
Dew Point: 16°   Wind: 6mph
Humidity: 58%   Direction: 220°SW
Pressure: 30.51"   Gusts: NA
Location:  39.85°N, 74.96°W
Report Text: KVAY 221354Z AUTO 22005KT 10SM CLR M02/M09 A3051 RMK AO2 SLP332 T10171089
Loading
Personal Weather Stations






























Interactive Weather Map New forecast layout! Learn more

10-Day Weather Forecast

Advertisements
Track Severe Weather on mobile